Time;durP1;ratioP1;P1;durP2;ratioP2;P2;SDS_P1;SDS_P2;PMS_P1;PMS_P2;Temp;Humidity;BMP_temperature;BMP_pressure;BME280_temperature;BME280_humidity;BME280_pressure;Samples;Min_cycle;Max_cycle;Signal;HPM_P1;HPM_P2
2022/12/06 00:01:28;;;;;;;0.47;0.47;;;;;;;20.88;47.96;100863.41;7387436;19;20025;-58
2022/12/06 00:03:57;;;;;;;1.20;0.20;;;;;;;21.11;47.66;100866.94;7396423;19;20362;-58
2022/12/06 00:06:26;;;;;;;1.00;0.63;;;;;;;21.17;47.28;100872.56;7395656;19;20017;-58
2022/12/06 00:08:53;;;;;;;0.28;0.10;;;;;;;21.31;46.89;100860.84;7396504;19;20006;-58
2022/12/06 00:11:23;;;;;;;0.82;0.55;;;;;;;20.84;47.65;100874.25;7398374;19;20050;-58
2022/12/06 00:13:58;;;;;;;1.55;1.08;;;;;;;21.63;46.45;100878.16;7401323;19;20022;-58
2022/12/06 00:16:25;;;;;;;0.10;0.10;;;;;;;21.94;45.87;100874.81;7395615;19;20010;-58
2022/12/06 00:18:52;;;;;;;0.90;0.40;;;;;;;21.53;46.34;100882.59;7398050;19;20015;-58
2022/12/06 00:21:22;;;;;;;0.10;0.10;;;;;;;21.41;46.27;100875.50;7396988;19;20015;-58
2022/12/06 00:23:54;;;;;;;2.00;0.40;;;;;;;21.42;46.34;100865.69;7396739;19;20011;-58
2022/12/06 00:26:21;;;;;;;0.63;0.35;;;;;;;21.22;45.97;100874.59;7396270;19;20011;-58
2022/12/06 00:28:50;;;;;;;0.20;0.20;;;;;;;21.38;45.94;100879.38;7399422;19;20030;-58
2022/12/06 00:31:18;;;;;;;2.25;0.82;;;;;;;21.11;46.15;100884.69;7396222;19;20117;-58
2022/12/06 00:33:45;;;;;;;1.00;0.40;;;;;;;21.31;45.67;100882.78;7395307;19;20010;-58
2022/12/06 00:36:33;;;;;;;0.35;0.25;;;;;;;21.74;45.29;100884.50;7394978;19;20434;-58
2022/12/06 00:39:01;;;;;;;0.10;0.10;;;;;;;22.29;44.61;100886.06;7398209;19;20390;-58
2022/12/06 00:41:27;;;;;;;1.15;1.00;;;;;;;21.96;44.69;100886.38;7394740;19;20011;-58
2022/12/06 00:43:54;;;;;;;0.20;0.10;;;;;;;20.67;45.81;100887.72;7394899;19;20475;-58
2022/12/06 00:46:24;;;;;;;0.10;0.10;;;;;;;20.32;46.24;100879.09;7395582;19;20007;-58
2022/12/06 00:48:51;;;;;;;0.10;0.10;;;;;;;20.82;45.98;100876.84;7397574;19;20011;-58
2022/12/06 00:51:19;;;;;;;3.60;0.38;;;;;;;20.61;45.72;100877.72;7394703;19;20031;-58
2022/12/06 00:53:46;;;;;;;0.30;0.30;;;;;;;18.45;50.40;100886.00;7395026;19;20256;-58
2022/12/06 00:56:13;;;;;;;0.20;0.20;;;;;;;20.21;46.82;100879.88;7393916;19;20028;-58
2022/12/06 00:58:40;;;;;;;0.25;0.25;;;;;;;20.57;46.09;100872.31;7395241;19;20470;-58
2022/12/06 01:01:12;;;;;;;0.10;0.10;;;;;;;20.49;45.87;100876.97;7395144;19;20015;-58
2022/12/06 01:03:39;;;;;;;0.47;0.47;;;;;;;20.24;45.54;100872.41;7394435;19;20010;-58
2022/12/06 01:06:08;;;;;;;0.25;0.25;;;;;;;18.81;47.51;100873.81;7394083;19;20037;-58
2022/12/06 01:08:35;;;;;;;0.20;0.20;;;;;;;19.70;46.29;100868.34;7395981;19;20037;-58
2022/12/06 01:11:02;;;;;;;0.10;0.05;;;;;;;20.10;45.84;100867.78;7392849;19;20014;-58
2022/12/06 01:13:29;;;;;;;0.40;0.20;;;;;;;20.03;45.23;100873.97;7394608;19;20033;-58
2022/12/06 01:15:56;;;;;;;0.55;0.30;;;;;;;20.28;45.16;100865.22;7393405;19;20749;-58
2022/12/06 01:18:22;;;;;;;0.30;0.20;;;;;;;19.30;45.78;100876.00;7391230;19;20019;-81
2022/12/06 01:20:48;;;;;;;0.20;0.20;;;;;;;19.38;45.79;100865.75;7390152;19;20014;-81
2022/12/06 01:23:15;;;;;;;2.83;0.20;;;;;;;19.50;45.66;100856.03;7391246;19;20021;-81
2022/12/06 01:25:51;;;;;;;0.10;0.10;;;;;;;19.47;45.90;100854.22;7389271;19;20105;-81
2022/12/06 01:28:17;;;;;;;4.78;0.20;;;;;;;19.46;45.73;100855.50;7391270;19;20429;-81
2022/12/06 01:30:43;;;;;;;0.13;0.13;;;;;;;19.05;45.82;100853.63;7393805;19;20479;-81
2022/12/06 01:33:10;;;;;;;6.18;0.45;;;;;;;18.93;46.41;100853.59;7390812;19;20014;-82
2022/12/06 01:35:42;;;;;;;0.30;0.30;;;;;;;18.40;46.35;100850.03;7391668;19;20037;-81
2022/12/06 01:38:09;;;;;;;0.10;0.10;;;;;;;18.89;46.38;100853.06;7391362;19;20110;-81
2022/12/06 01:40:40;;;;;;;0.10;0.10;;;;;;;19.41;45.39;100852.66;7391410;19;20018;-82
2022/12/06 01:43:25;;;;;;;;;;;;;;;18.78;45.92;100852.25;7393192;19;20070;-82
2022/12/06 01:45:52;;;;;;;2.38;0.77;;;;;;;18.55;46.86;100851.41;7392544;19;19919;-80
2022/12/06 01:48:19;;;;;;;0.20;0.20;;;;;;;18.58;46.59;100852.47;7391634;19;20014;-81
2022/12/06 01:50:46;;;;;;;0.20;0.20;;;;;;;18.47;46.81;100846.75;7390644;19;20030;-81
2022/12/06 01:53:12;;;;;;;0.13;0.13;;;;;;;18.56;46.94;100840.91;7391895;19;20031;-81
2022/12/06 01:55:39;;;;;;;0.10;0.10;;;;;;;18.39;46.51;100832.31;7389388;19;20352;-81
2022/12/06 01:58:18;;;;;;;0.20;0.15;;;;;;;18.30;46.63;100828.97;7393851;19;20376;-81
2022/12/06 02:00:45;;;;;;;0.47;0.32;;;;;;;17.96;47.12;100828.00;7389518;19;20352;-81
2022/12/06 02:03:17;;;;;;;0.10;0.10;;;;;;;18.17;46.88;100833.00;7389565;19;20014;-81
2022/12/06 02:05:44;;;;;;;0.30;0.30;;;;;;;17.71;47.20;100829.63;7390711;19;20101;-81
2022/12/06 02:08:12;;;;;;;0.52;0.30;;;;;;;18.09;46.50;100831.94;7390263;19;20014;-81
2022/12/06 02:10:38;;;;;;;4.38;0.88;;;;;;;18.59;46.10;100829.38;7391512;19;20029;-82
2022/12/06 02:13:06;;;;;;;0.25;0.25;;;;;;;19.21;44.98;100822.56;7391266;19;20025;-80
2022/12/06 02:15:57;;;;;;;1.85;0.47;;;;;;;20.02;43.46;100824.34;7393490;19;20018;-81
2022/12/06 02:18:42;;;;;;;0.13;0.13;;;;;;;20.02;42.83;100815.88;7391674;19;20022;-82
2022/12/06 02:21:08;;;;;;;0.35;0.13;;;;;;;19.78;43.03;100829.78;7389021;19;20047;-81
2022/12/06 02:23:56;;;;;;;0.52;0.38;;;;;;;19.61;43.08;100816.47;7390424;19;20348;-81
2022/12/06 02:26:42;;;;;;;1.73;0.47;;;;;;;18.77;43.65;100822.50;7389649;19;20070;-81
2022/12/06 02:29:11;;;;;;;0.28;0.28;;;;;;;19.16;43.08;100823.34;7391556;19;20021;-81
2022/12/06 02:31:57;;;;;;;0.20;0.20;;;;;;;19.42;43.03;100832.41;7389483;19;20006;-85
2022/12/06 02:34:41;;;;;;;0.17;0.17;;;;;;;19.47;42.67;100828.78;7390906;19;20019;-83
2022/12/06 02:37:35;;;;;;;0.30;0.30;;;;;;;18.58;43.60;100832.72;7389353;19;20014;-83
2022/12/06 02:40:06;;;;;;;0.22;0.22;;;;;;;19.06;43.37;100830.50;7395842;19;20015;-85
2022/12/06 02:42:46;;;;;;;0.88;0.88;;;;;;;18.92;43.37;100831.53;7392821;19;20007;-81
2022/12/06 02:45:17;;;;;;;0.10;0.10;;;;;;;18.62;43.92;100827.59;7391472;19;20042;-82
2022/12/06 02:47:46;;;;;;;0.60;0.35;;;;;;;18.69;43.44;100827.84;7390918;19;20019;-83
2022/12/06 02:50:17;;;;;;;0.20;0.20;;;;;;;18.80;42.99;100824.28;7390227;19;20021;-81
2022/12/06 02:52:47;;;;;;;0.30;0.30;;;;;;;18.42;43.00;100819.25;7389364;19;20026;-82
2022/12/06 02:55:15;;;;;;;0.10;0.10;;;;;;;18.42;43.13;100825.69;7389527;19;20018;-82
2022/12/06 02:57:52;;;;;;;0.22;0.22;;;;;;;18.62;42.80;100825.53;7389567;19;20018;-83
2022/12/06 03:00:24;;;;;;;1.40;0.65;;;;;;;18.81;42.41;100820.97;7390371;19;20021;-83
2022/12/06 03:03:03;;;;;;;0.17;0.17;;;;;;;18.58;42.61;100821.41;7389710;19;20050;-82
2022/12/06 03:05:38;;;;;;;0.20;0.20;;;;;;;18.53;43.14;100819.34;7390451;19;20032;-82
2022/12/06 03:08:16;;;;;;;0.10;0.10;;;;;;;18.69;42.91;100810.19;7391802;19;20728;-82
2022/12/06 03:10:54;;;;;;;0.20;0.20;;;;;;;19.05;42.77;100809.22;7389863;19;20359;-82
2022/12/06 03:13:26;;;;;;;4.10;0.45;;;;;;;19.37;42.61;100812.59;7388780;19;20014;-82
2022/12/06 03:16:00;;;;;;;0.30;0.30;;;;;;;18.44;44.06;100805.44;7390262;19;20019;-82
2022/12/06 03:18:43;;;;;;;0.10;0.10;;;;;;;18.48;44.71;100814.44;7390987;19;20014;-83
2022/12/06 03:21:21;;;;;;;0.15;0.15;;;;;;;19.32;43.41;100805.63;7391554;19;20348;-83
2022/12/06 03:23:50;;;;;;;0.20;0.20;;;;;;;19.25;43.87;100794.84;7389956;19;20051;-83
2022/12/06 03:26:22;;;;;;;0.90;0.90;;;;;;;19.68;43.33;100784.09;7391008;19;20038;-82
2022/12/06 03:28:50;;;;;;;0.40;0.40;;;;;;;19.71;43.54;100785.09;7390795;19;20102;-82
2022/12/06 03:31:16;;;;;;;0.30;0.20;;;;;;;19.47;43.96;100782.81;7388943;19;20011;-82
2022/12/06 03:33:51;;;;;;;0.15;0.15;;;;;;;19.14;44.45;100783.56;7389876;19;20037;-82
2022/12/06 03:36:19;;;;;;;0.55;0.55;;;;;;;19.37;44.18;100771.00;7389178;19;20081;-82
2022/12/06 03:38:51;;;;;;;0.10;0.10;;;;;;;19.92;43.60;100775.03;7398012;19;20098;-82
2022/12/06 03:41:22;;;;;;;1.88;0.82;;;;;;;18.91;44.52;100776.34;7396362;19;20010;-83
2022/12/06 03:43:48;;;;;;;0.10;0.10;;;;;;;17.74;45.83;100771.50;7398325;19;20019;-82
2022/12/06 03:46:18;;;;;;;1.98;0.40;;;;;;;18.14;45.67;100763.53;7400722;19;20026;-83
2022/12/06 03:49:28;;;;;;;0.17;0.17;;;;;;;19.24;44.34;100767.91;7397781;19;20025;-82
2022/12/06 03:51:54;;;;;;;0.10;0.10;;;;;;;18.54;44.76;100778.56;7396610;19;20360;-83
2022/12/06 03:54:21;;;;;;;0.65;0.65;;;;;;;18.83;44.40;100769.66;7395934;19;20049;-82
2022/12/06 03:56:47;;;;;;;0.20;0.20;;;;;;;18.67;44.52;100770.38;7395676;19;20011;-82
2022/12/06 03:59:13;;;;;;;0.65;0.47;;;;;;;18.48;44.19;100777.78;7395841;19;20034;-83
2022/12/06 04:01:39;;;;;;;0.10;0.10;;;;;;;17.45;46.31;100775.38;7396756;19;20021;-82
2022/12/06 04:04:05;;;;;;;1.65;0.20;;;;;;;18.37;45.09;100769.25;7396443;19;20352;-82
2022/12/06 04:06:31;;;;;;;0.45;0.45;;;;;;;18.87;44.38;100768.13;7396918;19;20018;-82
2022/12/06 04:09:51;;;;;;;0.20;0.20;;;;;;;19.04;44.12;100764.53;7397172;19;20019;-81
2022/12/06 04:11:44;;;;;;;0.20;0.20;;;;;;;18.92;44.13;100758.13;7396663;19;20042;-83
2022/12/06 04:14:11;;;;;;;1.98;1.05;;;;;;;18.46;44.25;100760.59;7395331;19;20348;-81
2022/12/06 04:19:21;;;;;;;4.68;0.63;;;;;;;18.09;44.56;100753.00;7397452;19;20017;-82
2022/12/06 04:24:32;;;;;;;0.25;0.25;;;;;;;17.62;45.01;100762.22;7396441;19;20047;-81
2022/12/06 04:28:40;;;;;;;0.20;0.20;;;;;;;18.14;44.22;100755.06;7398485;19;20014;-83
2022/12/06 04:40:47;;;;;;;0.60;0.60;;;;;;;17.75;43.90;100768.19;7394652;19;20074;-83
2022/12/06 04:45:57;;;;;;;0.20;0.20;;;;;;;17.23;45.28;100772.38;7396489;19;20023;-82
2022/12/06 04:48:23;;;;;;;0.28;0.28;;;;;;;17.48;45.42;100774.38;7393209;19;20336;-82
2022/12/06 04:50:50;;;;;;;0.20;0.20;;;;;;;17.68;45.32;100774.28;7393900;19;20026;-84
2022/12/06 04:53:16;;;;;;;0.20;0.20;;;;;;;17.73;45.29;100765.09;7396109;19;20077;-83
2022/12/06 04:55:47;;;;;;;0.75;0.60;;;;;;;17.69;45.84;100756.13;7393499;19;20070;-81
2022/12/06 04:58:14;;;;;;;3.25;0.57;;;;;;;17.31;45.91;100765.00;7394828;19;20055;-83
2022/12/06 05:00:42;;;;;;;1.17;0.60;;;;;;;16.70;47.04;100763.72;7393786;19;20018;-82
2022/12/06 05:03:13;;;;;;;0.10;0.10;;;;;;;16.20;47.46;100761.06;7395384;19;20015;-82
2022/12/06 05:05:41;;;;;;;0.15;0.15;;;;;;;16.86;46.19;100757.47;7396133;19;20036;-83
2022/12/06 05:08:07;;;;;;;0.10;0.00;;;;;;;16.62;46.44;100757.72;7394050;19;20030;-82
2022/12/06 05:10:34;;;;;;;0.30;0.30;;;;;;;16.44;46.48;100758.00;7394894;19;20070;-82
2022/12/06 05:13:01;;;;;;;0.38;0.38;;;;;;;16.19;46.60;100756.72;7395862;19;20010;-83
2022/12/06 05:15:28;;;;;;;3.13;0.68;;;;;;;15.89;46.69;100763.72;7398260;19;20014;-83
2022/12/06 05:17:54;;;;;;;0.20;0.20;;;;;;;15.88;46.70;100762.16;7395726;19;20010;-82
2022/12/06 05:20:20;;;;;;;0.47;0.20;;;;;;;15.87;46.46;100750.16;7394381;19;20021;-82
2022/12/06 05:22:46;;;;;;;0.57;0.57;;;;;;;16.01;46.56;100759.78;7393900;19;20479;-82
2022/12/06 05:25:13;;;;;;;0.40;0.40;;;;;;;15.89;46.16;100749.69;7394302;19;20037;-83
2022/12/06 05:27:39;;;;;;;0.35;0.32;;;;;;;15.63;46.81;100757.22;7398492;19;20011;-81
2022/12/06 05:30:06;;;;;;;0.20;0.20;;;;;;;15.23;47.61;100763.47;7396710;19;20023;-83
2022/12/06 05:32:32;;;;;;;0.57;0.57;;;;;;;15.41;47.25;100768.09;7393586;19;20507;-82
2022/12/06 05:34:58;;;;;;;0.30;0.30;;;;;;;15.48;47.20;100762.09;7395371;19;20088;-83
2022/12/06 05:37:24;;;;;;;0.30;0.30;;;;;;;15.42;47.01;100764.78;7393373;19;20022;-83
2022/12/06 05:39:50;;;;;;;0.30;0.30;;;;;;;15.10;47.19;100760.97;7397506;19;20479;-83
2022/12/06 05:42:16;;;;;;;3.92;1.05;;;;;;;15.29;47.18;100764.31;7393416;19;20049;-82
2022/12/06 05:44:42;;;;;;;0.20;0.20;;;;;;;15.38;46.87;100757.81;7393744;19;20014;-82
2022/12/06 05:47:08;;;;;;;1.58;0.77;;;;;;;15.32;47.02;100763.34;7394683;19;20007;-83
2022/12/06 05:49:35;;;;;;;0.40;0.40;;;;;;;15.78;46.43;100758.72;7394807;19;20360;-83
2022/12/06 05:52:01;;;;;;;0.50;0.50;;;;;;;15.73;46.21;100764.25;7392380;19;20019;-82
2022/12/06 05:54:27;;;;;;;1.75;0.88;;;;;;;15.17;47.04;100766.19;7394257;19;20021;-82
2022/12/06 05:56:54;;;;;;;0.30;0.30;;;;;;;15.28;47.02;100765.59;7391199;19;20002;-82
2022/12/06 05:59:20;;;;;;;6.18;1.60;;;;;;;14.90;47.17;100763.66;7391700;19;20015;-82
2022/12/06 06:01:46;;;;;;;14.05;0.80;;;;;;;14.29;48.37;100768.13;7393101;19;20344;-82
2022/12/06 06:04:12;;;;;;;0.10;0.10;;;;;;;14.89;47.33;100776.16;7393257;19;20480;-82
2022/12/06 06:06:39;;;;;;;0.30;0.30;;;;;;;15.03;47.36;100775.38;7393747;19;20086;-82
2022/12/06 06:09:05;;;;;;;0.43;0.43;;;;;;;14.78;47.77;100775.16;7395312;19;20034;-82
2022/12/06 06:11:31;;;;;;;0.10;0.10;;;;;;;15.08;47.05;100773.91;7393037;19;20026;-82
2022/12/06 06:13:57;;;;;;;2.55;0.88;;;;;;;15.75;46.59;100765.31;7393577;19;20018;-82
2022/12/06 06:16:23;;;;;;;0.47;0.47;;;;;;;15.91;46.13;100755.56;7389202;19;20011;-83
2022/12/06 06:18:49;;;;;;;0.30;0.25;;;;;;;15.70;46.07;100763.19;7392899;19;20082;-83
2022/12/06 06:21:15;;;;;;;1.08;0.43;;;;;;;15.45;46.76;100774.28;7393880;19;20053;-83
2022/12/06 06:23:42;;;;;;;0.57;0.50;;;;;;;16.17;45.96;100764.88;7392572;19;20011;-83
2022/12/06 06:26:09;;;;;;;0.13;0.13;;;;;;;16.36;45.45;100756.91;7392804;19;20022;-83
2022/12/06 06:28:35;;;;;;;0.10;0.10;;;;;;;16.42;45.37;100755.69;7392925;19;20027;-81
2022/12/06 06:31:02;;;;;;;6.50;1.65;;;;;;;16.35;45.37;100750.50;7391725;19;20707;-81
2022/12/06 06:33:29;;;;;;;0.30;0.30;;;;;;;16.28;45.26;100750.94;7388504;19;20376;-82
2022/12/06 06:35:55;;;;;;;0.28;0.28;;;;;;;16.54;44.96;100760.22;7388689;19;20070;-81
2022/12/06 06:38:21;;;;;;;0.25;0.25;;;;;;;16.63;44.73;100748.03;7391181;19;20113;-82
2022/12/06 06:40:47;;;;;;;1.02;0.57;;;;;;;16.80;44.76;100745.38;7390340;19;20732;-82
2022/12/06 06:43:19;;;;;;;0.25;0.25;;;;;;;13.65;48.23;100762.13;7390479;19;20775;-81
2022/12/06 06:45:53;;;;;;;0.52;0.43;;;;;;;15.80;46.02;100755.44;7390167;19;20014;-82
2022/12/06 06:48:20;;;;;;;0.65;0.40;;;;;;;16.67;44.53;100749.34;7392395;19;20344;-82
2022/12/06 06:50:47;;;;;;;0.30;0.30;;;;;;;17.00;44.08;100743.25;7389537;19;20017;-82
2022/12/06 06:53:13;;;;;;;0.73;0.73;;;;;;;16.76;43.86;100736.41;7389279;19;20010;-82
2022/12/06 06:55:39;;;;;;;0.63;0.30;;;;;;;16.39;44.54;100739.06;7390406;19;20606;-82
2022/12/06 06:58:05;;;;;;;0.30;0.30;;;;;;;16.58;44.22;100746.72;7391408;19;20026;-82
2022/12/06 07:00:31;;;;;;;0.30;0.30;;;;;;;16.41;44.21;100737.31;7391778;19;20073;-83
2022/12/06 07:02:57;;;;;;;0.20;0.20;;;;;;;16.84;43.70;100740.31;7390979;19;20023;-82
2022/12/06 07:05:24;;;;;;;0.57;0.50;;;;;;;16.70;44.05;100741.22;7390749;19;20063;-82
2022/12/06 07:07:50;;;;;;;1.45;1.30;;;;;;;16.55;43.85;100741.28;7390107;19;20392;-81
2022/12/06 07:10:16;;;;;;;7.10;1.35;;;;;;;16.26;44.12;100750.66;7391462;19;20018;-82
2022/12/06 07:12:43;;;;;;;2.22;1.23;;;;;;;16.28;43.93;100753.75;7391801;19;20026;-83
2022/12/06 07:15:10;;;;;;;2.05;1.52;;;;;;;16.16;44.44;100743.63;7391392;19;20461;-83
2022/12/06 07:17:36;;;;;;;10.70;2.75;;;;;;;15.87;44.72;100747.34;7389916;19;20037;-82
2022/12/06 07:20:03;;;;;;;5.22;1.02;;;;;;;15.73;44.82;100750.22;7395438;19;20022;-82
2022/12/06 07:22:30;;;;;;;4.00;1.90;;;;;;;15.52;45.16;100751.44;7393711;19;20094;-82
2022/12/06 07:24:56;;;;;;;0.95;0.45;;;;;;;15.69;44.96;100744.03;7390931;19;20500;-82
2022/12/06 07:27:22;;;;;;;3.80;1.42;;;;;;;15.76;44.86;100749.25;7392584;19;20393;-81
2022/12/06 07:29:48;;;;;;;1.25;0.73;;;;;;;15.82;44.53;100741.66;7391312;19;20048;-82
2022/12/06 07:32:14;;;;;;;0.38;0.38;;;;;;;15.64;44.43;100745.50;7390155;19;20022;-82
2022/12/06 07:34:40;;;;;;;0.10;0.10;;;;;;;15.88;44.29;100739.69;7389261;19;20014;-81
2022/12/06 07:37:06;;;;;;;0.40;0.30;;;;;;;15.61;44.30;100737.28;7389607;19;20026;-83
2022/12/06 07:39:33;;;;;;;0.60;0.60;;;;;;;15.48;44.68;100745.25;7391711;19;20070;-83
2022/12/06 07:45:04;;;;;;;4.20;0.90;;;;;;;15.72;44.18;100732.59;7389539;19;20025;-82
2022/12/06 07:47:35;;;;;;;1.27;1.17;;;;;;;16.26;43.74;100742.25;7390946;19;20011;-82
2022/12/06 07:50:03;;;;;;;1.02;1.02;;;;;;;16.25;43.75;100734.28;7391049;19;20033;-81
2022/12/06 07:52:31;;;;;;;0.40;0.40;;;;;;;16.18;43.76;100735.47;7387906;19;20097;-82
2022/12/06 07:54:57;;;;;;;1.75;0.85;;;;;;;16.18;43.79;100729.06;7391189;19;20364;-82
2022/12/06 07:57:23;;;;;;;2.63;0.95;;;;;;;16.10;44.06;100745.59;7388883;19;20018;-82
2022/12/06 07:59:50;;;;;;;3.53;1.58;;;;;;;16.29;43.79;100746.06;7391733;19;20025;-82
2022/12/06 08:02:21;;;;;;;0.20;0.13;;;;;;;15.60;44.08;100744.16;7383120;19;20014;-82
2022/12/06 08:04:47;;;;;;;0.38;0.38;;;;;;;15.99;44.16;100739.84;7394886;19;20017;-83
2022/12/06 08:07:14;;;;;;;8.85;2.83;;;;;;;15.56;44.62;100741.56;7388361;19;20032;-83
2022/12/06 08:09:41;;;;;;;2.78;1.52;;;;;;;15.67;44.29;100740.94;7389638;19;20488;-83
2022/12/06 08:12:07;;;;;;;1.10;1.10;;;;;;;15.70;44.60;100739.97;7395233;19;20014;-84
2022/12/06 08:14:34;;;;;;;5.72;2.40;;;;;;;16.21;43.66;100745.75;7390298;19;20086;-84
2022/12/06 08:17:01;;;;;;;1.67;1.25;;;;;;;16.14;43.72;100742.56;7384205;19;20023;-84
2022/12/06 08:19:27;;;;;;;0.38;0.38;;;;;;;16.28;43.45;100739.69;7387777;19;20010;-84
2022/12/06 08:21:53;;;;;;;2.03;1.17;;;;;;;15.73;44.48;100750.22;7391130;19;20007;-85
2022/12/06 08:24:21;;;;;;;3.30;1.30;;;;;;;15.95;44.28;100750.53;7399133;19;20025;-84
2022/12/06 08:26:47;;;;;;;1.52;1.10;;;;;;;15.99;43.86;100748.28;7399386;19;20010;-83
2022/12/06 08:29:14;;;;;;;0.47;0.47;;;;;;;15.51;44.80;100755.50;7397273;19;20015;-82
2022/12/06 08:31:40;;;;;;;0.68;0.60;;;;;;;15.92;44.03;100757.88;7396529;19;20023;-83
2022/12/06 08:34:06;;;;;;;2.58;1.27;;;;;;;15.84;44.42;100751.16;7395620;19;20014;-84
2022/12/06 08:36:32;;;;;;;0.85;0.85;;;;;;;16.18;43.96;100755.16;7396533;19;20022;-84
2022/12/06 08:39:00;;;;;;;4.00;1.73;;;;;;;16.54;43.58;100751.00;7398914;19;20018;-84
2022/12/06 08:44:13;;;;;;;10.55;5.90;;;;;;;16.83;43.74;100755.66;7399190;19;20018;-84
2022/12/06 08:46:40;;;;;;;10.00;4.47;;;;;;;16.90;44.18;100758.00;7398876;19;20048;-85
2022/12/06 08:49:06;;;;;;;2.92;1.50;;;;;;;16.96;44.04;100758.81;7397979;19;20408;-86
2022/12/06 08:51:34;;;;;;;1.27;1.02;;;;;;;17.18;44.62;100748.53;7401620;19;20013;-86
2022/12/06 08:54:01;;;;;;;3.05;2.00;;;;;;;17.59;43.64;100751.94;7399679;19;20014;-85
2022/12/06 08:56:27;;;;;;;8.95;2.88;;;;;;;17.46;44.03;100757.19;7395994;19;20022;-84
2022/12/06 08:58:55;;;;;;;4.13;2.53;;;;;;;16.91;44.41;100745.50;7396175;19;20018;-85
2022/12/06 09:01:27;;;;;;;1.48;1.00;;;;;;;16.96;44.10;100737.09;7400063;19;20007;-85
2022/12/06 09:03:53;;;;;;;4.00;1.67;;;;;;;16.82;44.24;100746.44;7398390;19;20015;-85
2022/12/06 09:06:20;;;;;;;1.55;1.13;;;;;;;17.17;44.45;100749.06;7394213;19;20015;-85
2022/12/06 09:08:47;;;;;;;0.95;0.65;;;;;;;17.55;44.09;100748.59;7398390;19;20352;-87
2022/12/06 09:11:15;;;;;;;3.20;1.08;;;;;;;17.13;43.76;100754.13;7398455;19;20352;-89
2022/12/06 09:13:42;;;;;;;3.15;0.95;;;;;;;16.75;44.35;100754.53;7400426;19;20022;-91
2022/12/06 09:16:14;;;;;;;1.65;0.77;;;;;;;17.76;43.10;100752.81;7396708;19;20022;-87
2022/12/06 09:18:45;;;;;;;0.40;0.40;;;;;;;17.55;43.58;100751.41;7398057;19;20363;-86
2022/12/06 09:21:21;;;;;;;0.30;0.30;;;;;;;16.77;43.72;100758.41;7395658;19;20022;-85
2022/12/06 09:23:48;;;;;;;1.75;0.65;;;;;;;17.17;44.16;100760.31;7397341;19;20452;-85
2022/12/06 09:26:15;;;;;;;0.30;0.30;;;;;;;18.07;43.50;100758.38;7393991;19;20475;-84
2022/12/06 09:28:43;;;;;;;0.88;0.88;;;;;;;16.91;44.77;100759.56;7397850;19;20014;-85
2022/12/06 09:31:09;;;;;;;1.33;1.10;;;;;;;16.74;46.25;100764.25;7396914;19;20014;-85
2022/12/06 09:33:37;;;;;;;2.45;1.88;;;;;;;17.11;45.95;100765.09;7398731;19;20018;-86
2022/12/06 09:36:31;;;;;;;2.10;0.65;;;;;;;17.67;45.37;100771.97;7395131;19;20043;-86
2022/12/06 09:39:04;;;;;;;2.25;1.50;;;;;;;17.69;44.73;100769.44;7400408;19;20015;-85
2022/12/06 09:41:36;;;;;;;1.30;1.25;;;;;;;17.44;44.80;100765.38;7397730;19;20014;-85
2022/12/06 09:44:11;;;;;;;0.32;0.32;;;;;;;17.25;45.09;100764.22;7395307;19;20014;-85
2022/12/06 09:46:56;;;;;;;1.20;0.90;;;;;;;17.29;45.17;100765.53;7396665;19;20014;-86
2022/12/06 09:49:29;;;;;;;0.77;0.75;;;;;;;17.47;45.46;100755.94;7398286;19;20006;-86
2022/12/06 09:52:04;;;;;;;0.47;0.32;;;;;;;17.30;46.02;100760.69;7395230;19;20014;-86
2022/12/06 09:54:40;;;;;;;0.68;0.68;;;;;;;17.40;45.97;100759.19;7396086;19;20014;-86
2022/12/06 09:57:30;;;;;;;2.70;1.15;;;;;;;17.27;46.41;100761.66;7397905;19;20016;-85
2022/12/06 10:00:11;;;;;;;1.40;1.08;;;;;;;17.46;46.19;100760.00;7402500;19;20011;-85
2022/12/06 10:03:01;;;;;;;3.45;1.92;;;;;;;17.49;45.95;100759.03;7395465;19;20006;-85
2022/12/06 10:05:37;;;;;;;4.57;2.75;;;;;;;17.19;45.64;100760.59;7395421;19;20011;-85
2022/12/06 10:08:22;;;;;;;1.70;1.00;;;;;;;17.26;45.55;100763.69;7397161;19;20010;-86
2022/12/06 10:11:30;;;;;;;2.05;1.23;;;;;;;17.20;45.74;100762.88;7395272;19;20027;-85
2022/12/06 10:14:06;;;;;;;5.32;1.63;;;;;;;17.31;45.25;100756.56;7395272;19;20019;-85
2022/12/06 10:17:00;;;;;;;1.25;1.15;;;;;;;17.55;45.29;100764.72;7394365;19;20697;-85
2022/12/06 10:19:47;;;;;;;6.47;1.63;;;;;;;17.75;44.74;100756.91;7396675;19;20768;-85
2022/12/06 10:22:44;;;;;;;13.68;2.42;;;;;;;17.91;44.60;100758.28;7394278;19;20024;-85
2022/12/06 10:25:13;;;;;;;4.88;1.52;;;;;;;18.06;44.26;100759.63;7393054;19;20021;-85
2022/12/06 10:27:48;;;;;;;3.25;1.45;;;;;;;18.10;44.28;100765.78;7396518;19;20011;-85
2022/12/06 10:30:15;;;;;;;1.02;0.60;;;;;;;17.88;44.54;100765.69;7395583;19;20024;-85
2022/12/06 10:33:16;;;;;;;2.40;1.17;;;;;;;18.07;44.61;100766.03;7398110;19;20061;-86
2022/12/06 10:35:58;;;;;;;4.63;1.33;;;;;;;17.89;45.15;100766.44;7395134;19;20114;-86
2022/12/06 10:39:02;;;;;;;2.58;1.35;;;;;;;18.10;45.42;100771.44;7395969;19;20015;-86
2022/12/06 10:41:43;;;;;;;6.53;1.70;;;;;;;18.23;45.93;100775.88;7395662;19;20025;-86
2022/12/06 10:44:33;;;;;;;1.55;1.08;;;;;;;18.39;46.38;100769.50;7394479;19;20026;-85
2022/12/06 10:47:25;;;;;;;0.82;0.80;;;;;;;18.87;45.88;100767.34;7394528;19;20018;-86
2022/12/06 10:50:21;;;;;;;0.70;0.70;;;;;;;19.53;45.82;100764.56;7399193;19;20014;-85
2022/12/06 10:52:53;;;;;;;1.13;0.90;;;;;;;19.65;46.01;100760.44;7394813;19;20019;-86
2022/12/06 10:55:29;;;;;;;;;;;;;;;19.47;46.25;100760.97;7395537;19;20472;-86
2022/12/06 10:58:02;;;;;;;0.45;0.30;;;;;;;19.45;46.82;100757.91;7397416;19;19935;-86
2022/12/06 11:00:33;;;;;;;2.08;1.00;;;;;;;18.93;47.59;100757.59;7394392;19;20014;-86
2022/12/06 11:03:07;;;;;;;0.85;0.85;;;;;;;19.49;46.96;100749.91;7396282;19;20464;-86
2022/12/06 11:05:42;;;;;;;1.58;0.73;;;;;;;19.49;46.96;100752.75;7394361;19;20038;-86
2022/12/06 11:08:15;;;;;;;1.25;0.85;;;;;;;19.94;45.82;100758.31;7394312;19;20416;-86
2022/12/06 11:10:44;;;;;;;1.23;1.20;;;;;;;20.00;45.82;100756.25;7395282;19;20015;-85
2022/12/06 11:13:33;;;;;;;9.23;0.98;;;;;;;20.14;46.33;100747.44;7393278;19;20017;-86
2022/12/06 11:16:17;;;;;;;1.05;0.70;;;;;;;20.25;46.50;100749.47;7392518;19;20019;-84
2022/12/06 11:18:46;;;;;;;0.43;0.20;;;;;;;20.66;46.69;100753.13;7393010;19;20022;-84
2022/12/06 11:21:12;;;;;;;0.63;0.63;;;;;;;20.89;46.61;100746.03;7391990;19;20090;-85
2022/12/06 11:23:56;;;;;;;0.30;0.30;;;;;;;20.99;46.46;100746.47;7392415;19;20017;-86
2022/12/06 11:26:43;;;;;;;1.25;0.65;;;;;;;20.78;46.74;100739.66;7392342;19;20322;-82
2022/12/06 11:29:12;;;;;;;0.38;0.38;;;;;;;20.79;46.65;100746.88;7393343;19;20015;-84
2022/12/06 11:31:47;;;;;;;0.38;0.30;;;;;;;20.87;46.84;100742.97;7391104;19;20007;-83
2022/12/06 11:34:29;;;;;;;0.63;0.63;;;;;;;21.26;46.82;100744.75;7391317;19;20795;-83
2022/12/06 11:36:56;;;;;;;2.50;0.60;;;;;;;21.08;46.70;100741.28;7390895;19;20475;-85
2022/12/06 11:39:23;;;;;;;1.27;0.65;;;;;;;20.61;47.11;100736.19;7391386;19;20014;-83
2022/12/06 11:41:53;;;;;;;1.27;0.52;;;;;;;20.48;46.85;100727.50;7391534;19;20602;-82
2022/12/06 11:44:24;;;;;;;0.35;0.35;;;;;;;19.79;47.70;100729.56;7391335;19;20658;-83
2022/12/06 11:46:54;;;;;;;;;;;;;;;20.25;46.52;100726.84;7390712;19;20468;-82
2022/12/06 11:49:32;;;;;;;5.32;0.75;;;;;;;20.04;46.72;100728.44;7391615;19;19923;-83
2022/12/06 11:52:12;;;;;;;1.08;1.00;;;;;;;20.05;47.50;100715.88;7392187;19;20124;-84
2022/12/06 11:54:54;;;;;;;14.32;0.68;;;;;;;20.08;47.28;100707.09;7391963;19;20014;-84
2022/12/06 11:57:25;;;;;;;0.22;0.22;;;;;;;20.57;46.77;100713.81;7388489;19;20015;-81
2022/12/06 12:00:10;;;;;;;1.92;0.60;;;;;;;20.72;46.38;100713.47;7401407;19;20480;-85
2022/12/06 12:02:41;;;;;;;0.77;0.77;;;;;;;20.70;46.07;100711.16;7390451;19;20039;-82
2022/12/06 12:05:19;;;;;;;6.15;1.35;;;;;;;20.74;46.21;100714.47;7391343;19;20023;-79
2022/12/06 12:08:13;;;;;;;1.00;0.50;;;;;;;20.92;45.77;100705.31;7390438;19;20021;-81
2022/12/06 12:10:42;;;;;;;0.80;0.65;;;;;;;21.04;45.79;100695.47;7392704;19;20018;-80